Bei Facebook empfehlenBei Twitter postenGoogle plusPinterest

Das Wetter im Erzgebirge am 11.05.2017

Wetter und Klima am 11.05.2017 Holzhau im Erzgebirge (630m ü.NN)
Letzte gemessene Temperatur und Uhrzeit der Messung23:45:00 Uhr7.60 °C
Temperatur (Maximum / Höchstwert) und Uhrzeit der Messung16:15:00 Uhr19.40 °C
Temperatur (Minimum / Tiefstwert) und Uhrzeit der Messung06:15:00-0.70 °C
Errechneter Absolutwert der Temperaturschwankungen zwischen Tmin und Tmax des Tages20.10 K
Errechnete Tagesmitteltemperatur10.32100 °C
Gesamt - Niederschlag des Tages (in flüssiger Form)1820.27 Liter / m²
Luftdruck (Maximum / Höchstwert) und Zeitpunkt der Messung00:00:00 Uhr1003.30 hPa
Luftdruck (Minimum / Tiefstwert) und Zeitpunkt der Messung23:10:00 Uhr935.20 hPa
Errechneter Absolutwert der Luftdruckschwankungen des Tages68.10 hPa
Höchste gemessene Windgeschwindigkeit und Uhrzeit der Messung23:10:00 Uhr660.96 km/h
Errechnete Windhäufigkeit in Relation zu den Messwerten des Tages49.00000 %
Niedrigste Windkühle (Windchill) und Zeitpunkt der Messung02:15:00 Uhr-2.90 °C
Taupunkt (Maximum / Höchstwert) und Uhrzeit der Messung21:10:00 Uhr6.80 °C
Taupunkt (Minimum / Tiefstwert) und Uhrzeit der Messung06:15:00-2.30 °C
Anzahl der automatisch eingelesenen Messwerte 100

Detaillierte Wetter- und Klima- Messwerte für den 11.05.2017 in Holzhau im Erzgebirge (630m ü.NN)
ZeitTemperaturLuftdruckRel. LuftfeuchteWindWindrichtungWindchillTaupunktNiederschlag l/m²
23:45:007.60 °C999.50 hPa73.00 %0.72 km/hSO7.60 °C3.10 °C 
23:30:007.80 °C999.30 hPa71.00 %4.68 km/hOSO7.80 °C2.90 °C 
23:15:008.40 °C999.30 hPa69.00 %1.80 km/hSO8.40 °C3.10 °C 
23:10:009.60 °C935.20 hPa82.00 %660.96 km/hWNW1.70 °C6.70 °C1820.27
23:00:009.30 °C999.60 hPa66.00 %3.60 km/hSO9.30 °C3.30 °C 
22:45:009.60 °C999.70 hPa64.00 %3.10 °C 
22:30:009.80 °C999.60 hPa64.00 %4.32 km/hSO9.80 °C3.30 °C 
22:15:0010.20 °C999.80 hPa63.00 %6.84 km/hONO9.50 °C3.50 °C 
22:10:009.60 °C935.50 hPa82.00 %660.96 km/hWNW1.70 °C6.70 °C1820.27
22:00:0010.30 °C999.70 hPa62.00 %7.20 km/hOSO9.50 °C3.30 °C 
21:45:0010.70 °C999.70 hPa61.00 %3.96 km/hSO10.70 °C3.50 °C 
21:30:0010.90 °C999.90 hPa60.00 %3.50 °C 
21:15:0011.20 °C999.70 hPa58.00 %3.30 °C 
21:10:009.50 °C935.90 hPa83.00 %660.96 km/hWNW1.50 °C6.80 °C1820.27
21:00:0011.90 °C999.70 hPa56.00 %2.88 km/hOSO11.90 °C3.40 °C 
20:45:0012.50 °C999.60 hPa54.00 %3.50 °C 
20:30:0013.10 °C999.50 hPa53.00 %3.70 °C 
20:15:0013.80 °C999.50 hPa51.00 %3.90 °C 
20:00:0014.40 °C999.50 hPa50.00 %7.20 km/hOSO14.30 °C4.10 °C 
19:45:0015.30 °C999.50 hPa49.00 %4.70 °C 
19:30:0016.10 °C999.60 hPa48.00 %5.10 °C 
19:15:0016.90 °C999.60 hPa47.00 %7.20 km/hOSO17.20 °C5.50 °C 
19:00:0017.10 °C999.50 hPa46.00 %1.80 km/hO17.10 °C5.40 °C 
18:45:0017.40 °C999.70 hPa44.00 %5.00 °C 
18:30:0018.10 °C1000.00 hPa42.00 %5.40 km/hSO18.90 °C5.00 °C 
18:15:0018.40 °C999.90 hPa41.00 %2.52 km/hO18.40 °C4.90 °C 
18:00:0018.80 °C1000.00 hPa41.00 %1.80 km/hS18.80 °C5.30 °C 
17:45:0018.80 °C1000.00 hPa41.00 %5.40 km/hONO19.70 °C5.30 °C 
17:30:0018.80 °C1000.10 hPa40.00 %4.90 °C 
17:15:0019.20 °C1000.30 hPa41.00 %2.88 km/hOSO19.20 °C5.60 °C 
17:00:0019.20 °C1000.40 hPa42.00 %6.00 °C 
16:45:0019.00 °C1000.70 hPa43.00 %10.08 km/hS19.40 °C6.10 °C 
16:30:0018.90 °C1000.80 hPa43.00 %9.00 km/hS19.40 °C6.10 °C 
16:15:0019.40 °C1000.80 hPa43.00 %8.28 km/hWSW20.00 °C6.50 °C 
16:00:0019.40 °C1000.80 hPa43.00 %6.50 °C 
15:45:0018.90 °C1000.90 hPa44.00 %10.08 km/hSSW19.30 °C6.40 °C 
15:30:0019.30 °C1001.00 hPa42.00 %12.60 km/hSW19.50 °C6.10 °C 
15:15:0019.00 °C1001.10 hPa42.00 %0.72 km/hSSO19.00 °C5.80 °C 
15:10:008.30 °C936.90 hPa83.00 %660.96 km/hWNW-0.30 °C5.60 °C851.61
15:00:0019.10 °C1001.20 hPa42.00 %6.84 km/hSW19.80 °C5.90 °C 
14:45:0018.90 °C1001.50 hPa44.00 %7.92 km/hSSW19.50 °C6.40 °C 
14:30:0018.80 °C1001.50 hPa43.00 %11.88 km/hSSW19.00 °C6.00 °C 
14:15:0018.90 °C1001.50 hPa41.00 %9.00 km/hSSW19.40 °C5.40 °C 
14:00:0018.90 °C1001.70 hPa43.00 %9.36 km/hSSW19.30 °C6.10 °C 
13:45:0018.30 °C1001.60 hPa44.00 %3.60 km/hSW18.30 °C5.80 °C 
13:30:0018.10 °C1001.70 hPa43.00 %1.08 km/hSO18.10 °C5.30 °C 
13:15:0017.50 °C1001.90 hPa43.00 %3.96 km/hOSO17.50 °C4.80 °C 
13:00:0017.10 °C1002.10 hPa43.00 %4.40 °C 
12:45:0016.90 °C1002.10 hPa44.00 %4.60 °C 
12:30:0016.70 °C1002.20 hPa43.00 %4.10 °C 
12:15:0016.50 °C1002.30 hPa43.00 %1.08 km/hSSO16.50 °C3.90 °C 
12:00:0016.40 °C1002.20 hPa41.00 %4.32 km/hSSW16.40 °C3.10 °C 
11:45:0016.40 °C1002.30 hPa42.00 %7.92 km/hWSW16.50 °C3.50 °C 
11:30:0016.10 °C1002.10 hPa42.00 %3.20 °C 
11:15:0016.20 °C1002.30 hPa43.00 %8.28 km/hSW16.30 °C3.60 °C 
11:00:0016.10 °C1002.40 hPa45.00 %3.24 km/hSO16.10 °C4.20 °C 
10:45:0015.80 °C1002.40 hPa45.00 %3.90 °C 
10:30:0015.80 °C1002.30 hPa46.00 %4.20 °C 
10:15:0015.50 °C1002.50 hPa47.00 %4.20 °C 
10:00:0015.30 °C1002.30 hPa48.00 %4.40 °C 
09:45:0014.90 °C1002.20 hPa53.00 %5.40 °C 
09:30:0014.60 °C1002.30 hPa56.00 %5.90 °C 
09:15:0013.80 °C1002.30 hPa59.00 %5.90 °C 
09:00:0012.80 °C1002.40 hPa65.00 %6.40 °C 
08:45:0011.50 °C1002.40 hPa73.00 %6.80 °C 
08:30:0010.20 °C1002.30 hPa77.00 %6.40 °C 
08:15:008.90 °C1002.30 hPa78.00 %5.30 °C 
08:00:007.80 °C1002.30 hPa79.00 %4.40 °C 
07:45:006.80 °C1002.40 hPa82.00 %3.90 °C 
07:30:005.30 °C1002.40 hPa85.00 %3.00 °C 
07:15:003.00 °C1002.40 hPa91.00 %1.70 °C 
07:00:000.70 °C1002.30 hPa91.00 %2.88 km/hSO0.70 °C-0.60 °C 
06:45:000.10 °C1002.30 hPa91.00 %-1.20 °C 
06:30:00-0.40 °C1002.40 hPa91.00 %1.80 km/hSO-0.40 °C-1.80 °C 
06:15:00-0.70 °C1002.40 hPa90.00 %-2.30 °C 
06:00:00-0.70 °C1002.40 hPa90.00 %-2.30 °C 
05:45:00-0.70 °C1002.40 hPa90.00 %-2.30 °C 
05:30:00-0.70 °C1002.40 hPa90.00 %3.60 km/hOSO-0.70 °C-2.30 °C 
05:15:00-0.70 °C1002.40 hPa90.00 %-2.30 °C 
05:00:00-0.40 °C1002.40 hPa90.00 %4.32 km/hOSO-0.40 °C-2.00 °C 
04:45:00-0.40 °C1002.40 hPa89.00 %1.44 km/hOSO-0.40 °C-2.20 °C 
04:30:00-0.40 °C1002.40 hPa90.00 %-2.00 °C 
04:15:00-0.30 °C1002.50 hPa89.00 %-2.10 °C 
04:00:00-0.20 °C1002.60 hPa88.00 %-2.10 °C 
03:45:000.10 °C1002.70 hPa89.00 %6.12 km/hONO-2.00 °C-1.50 °C 
03:30:000.10 °C1002.70 hPa89.00 %1.80 km/hOSO0.10 °C-1.50 °C 
03:15:000.10 °C1002.70 hPa89.00 %-1.50 °C 
03:00:00-0.10 °C1002.70 hPa88.00 %5.76 km/hOSO-2.00 °C-2.00 °C 
02:45:000.20 °C1002.80 hPa88.00 %-1.50 °C 
02:30:000.50 °C1002.90 hPa88.00 %-1.30 °C 
02:15:000.60 °C1002.90 hPa88.00 %11.16 km/hOSO-2.90 °C-1.20 °C 
02:00:000.70 °C1002.90 hPa87.00 %-1.20 °C 
01:45:000.60 °C1003.10 hPa87.00 %-1.30 °C 
01:30:000.80 °C1003.10 hPa87.00 %-1.10 °C 
01:15:000.90 °C1003.20 hPa86.00 %-1.20 °C 
01:00:001.10 °C1003.10 hPa86.00 %-1.00 °C 
00:45:001.30 °C1003.20 hPa85.00 %-0.90 °C 
00:30:001.40 °C1003.20 hPa84.00 %-1.00 °C 
00:15:001.60 °C1003.20 hPa84.00 %-0.80 °C 
00:00:001.60 °C1003.30 hPa82.00 %-1.10 °C 

Permanenter Link zu dieser Seite: Wetter im Erzgebirge am 11.05.2017
Performance-Info: Die Erstellung der Seite / Statistik(en) / Tabelle(n) erforderte 5 Datenbankserver-Abfrage(n) und dauerte 97 Millisekunden. (Dieser Messwert ist von der Gesamt-Auslastung des Servers abhängig.)
Erzgebirge - Wetter | Erzgebirge - Wetter (Mobilgeräte) | Komplette Klimadatenbank